Time;durP1;ratioP1;P1;durP2;ratioP2;P2;SDS_P1;SDS_P2;PMS_P1;PMS_P2;Temp;Humidity;BMP_temperature;BMP_pressure;BME280_temperature;BME280_humidity;BME280_pressure;Samples;Min_cycle;Max_cycle;Signal;HPM_P1;HPM_P2
2023/09/30 00:00:49;;;;;;;0.00;0.00;;;16.60;48.40;;;;;;5031719;28;20235;-65
2023/09/30 00:03:20;;;;;;;0.10;0.10;;;16.60;48.30;;;;;;5031129;28;20227;-60
2023/09/30 00:05:50;;;;;;;0.00;0.00;;;16.60;48.20;;;;;;5032111;28;20648;-62
2023/09/30 00:08:21;;;;;;;0.10;0.10;;;16.60;48.00;;;;;;5031639;28;20211;-58
2023/09/30 00:10:54;;;;;;;0.10;0.10;;;16.60;48.00;;;;;;5031414;28;20253;-57
2023/09/30 00:13:24;;;;;;;0.10;0.10;;;16.60;47.90;;;;;;5031140;28;20220;-52
2023/09/30 00:15:55;;;;;;;0.10;0.10;;;16.60;47.90;;;;;;5031400;28;20207;-58
2023/09/30 00:18:26;;;;;;;0.08;0.08;;;16.60;47.80;;;;;;5031726;28;20204;-54
2023/09/30 00:20:57;;;;;;;0.08;0.08;;;16.60;47.70;;;;;;5031281;28;20192;-66
2023/09/30 00:23:28;;;;;;;0.00;0.00;;;16.70;47.70;;;;;;5033297;28;20227;-53
2023/09/30 00:26:00;;;;;;;0.10;0.10;;;16.60;47.60;;;;;;5035309;28;20193;-61
2023/09/30 00:28:31;;;;;;;0.10;0.10;;;16.70;47.60;;;;;;5035306;28;20196;-58
2023/09/30 00:31:01;;;;;;;0.05;0.05;;;16.70;47.60;;;;;;5035435;28;20211;-58
2023/09/30 00:33:32;;;;;;;0.10;0.10;;;16.70;47.60;;;;;;5035137;28;20211;-52
2023/09/30 00:36:07;;;;;;;0.10;0.10;;;16.70;47.60;;;;;;5035101;28;20200;-64
2023/09/30 00:38:38;;;;;;;0.10;0.10;;;16.70;47.50;;;;;;5034989;28;20196;-54
2023/09/30 00:41:11;;;;;;;0.00;0.00;;;16.70;47.60;;;;;;5035171;28;20218;-58
2023/09/30 00:43:41;;;;;;;0.00;0.00;;;16.70;47.60;;;;;;5035058;28;20231;-57
2023/09/30 00:46:25;;;;;;;0.00;0.00;;;16.70;47.70;;;;;;5035563;28;20238;-62
2023/09/30 00:48:56;;;;;;;0.03;0.03;;;16.70;47.60;;;;;;5035187;28;20679;-61
2023/09/30 00:51:28;;;;;;;0.00;0.00;;;16.80;47.70;;;;;;5034544;28;20192;-57
2023/09/30 00:54:01;;;;;;;0.10;0.10;;;16.70;47.70;;;;;;5034852;28;20224;-59
2023/09/30 00:56:34;;;;;;;0.10;0.10;;;16.70;47.70;;;;;;5034816;28;20731;-52
2023/09/30 00:59:05;;;;;;;0.03;0.03;;;16.80;47.70;;;;;;5034467;28;20207;-61
2023/09/30 01:01:38;;;;;;;0.05;0.05;;;16.80;47.70;;;;;;5034756;28;20196;-56
2023/09/30 01:04:09;;;;;;;0.03;0.03;;;16.80;47.80;;;;;;5034712;28;20250;-58
2023/09/30 01:06:40;;;;;;;0.03;0.03;;;16.80;47.70;;;;;;5034509;28;20566;-62
2023/09/30 01:09:12;;;;;;;0.00;0.00;;;16.90;47.80;;;;;;5034207;28;20204;-63
2023/09/30 01:11:45;;;;;;;0.10;0.10;;;16.90;47.80;;;;;;5034852;28;20203;-60
2023/09/30 01:14:30;;;;;;;0.00;0.00;;;16.90;47.80;;;;;;5035072;28;20236;-63
2023/09/30 01:17:01;;;;;;;0.05;0.05;;;16.90;47.80;;;;;;5034586;28;20210;-52
2023/09/30 01:19:32;;;;;;;0.10;0.10;;;17.00;47.80;;;;;;5034342;28;20572;-59
2023/09/30 01:22:05;;;;;;;0.00;0.00;;;17.00;47.80;;;;;;5034333;28;20224;-62
2023/09/30 01:24:42;;;;;;;0.00;0.00;;;17.00;47.80;;;;;;5034353;28;20269;-63
2023/09/30 01:27:13;;;;;;;0.10;0.10;;;17.00;47.80;;;;;;5034727;28;20262;-64
2023/09/30 01:29:43;;;;;;;0.10;0.10;;;17.00;47.80;;;;;;5034505;28;20227;-51
2023/09/30 01:32:14;;;;;;;0.10;0.10;;;17.00;47.70;;;;;;5033819;28;20219;-66
2023/09/30 01:34:45;;;;;;;0.10;0.10;;;17.10;47.70;;;;;;5033503;28;20196;-56
2023/09/30 01:37:17;;;;;;;0.08;0.08;;;17.10;47.70;;;;;;5044121;28;20687;-55
2023/09/30 01:39:50;;;;;;;0.00;0.00;;;17.10;47.70;;;;;;5054257;28;20206;-60
2023/09/30 01:42:21;;;;;;;0.10;0.10;;;17.10;47.70;;;;;;5053686;28;20589;-60
2023/09/30 01:44:51;;;;;;;0.10;0.10;;;17.10;47.60;;;;;;5053631;28;20234;-59
2023/09/30 01:47:27;;;;;;;0.00;0.00;;;17.10;47.70;;;;;;5041288;28;20208;-60
2023/09/30 01:49:59;;;;;;;0.10;0.10;;;17.20;47.80;;;;;;5033693;28;20215;-56
2023/09/30 01:52:31;;;;;;;0.10;0.10;;;17.20;47.70;;;;;;5033323;28;20278;-56
2023/09/30 01:55:02;;;;;;;0.00;0.00;;;17.20;47.60;;;;;;5033462;28;20258;-54
2023/09/30 01:57:32;;;;;;;0.05;0.05;;;17.20;47.60;;;;;;5034041;28;20192;-58
2023/09/30 02:00:03;;;;;;;0.10;0.10;;;17.20;47.60;;;;;;5033893;28;20203;-59
2023/09/30 02:02:35;;;;;;;0.00;0.00;;;17.30;47.50;;;;;;5033768;28;20230;-60
2023/09/30 02:05:07;;;;;;;0.08;0.08;;;17.30;47.60;;;;;;5033861;28;20580;-57
2023/09/30 02:07:40;;;;;;;0.10;0.10;;;17.30;47.50;;;;;;5034125;28;20636;-57
2023/09/30 02:10:12;;;;;;;0.00;0.00;;;17.30;47.50;;;;;;5033654;28;20237;-57
2023/09/30 02:12:42;;;;;;;0.10;0.10;;;17.40;47.50;;;;;;5033718;28;20227;-64
2023/09/30 02:15:13;;;;;;;0.10;0.10;;;17.40;47.60;;;;;;5033411;28;20200;-59
2023/09/30 02:17:45;;;;;;;0.00;0.00;;;17.40;47.60;;;;;;5033429;28;20570;-58
2023/09/30 02:20:19;;;;;;;0.03;0.03;;;17.50;47.50;;;;;;5033418;28;20598;-54
2023/09/30 02:22:52;;;;;;;0.10;0.10;;;17.50;47.40;;;;;;5033525;28;20219;-59
2023/09/30 02:25:22;;;;;;;0.00;0.00;;;17.40;47.40;;;;;;5033307;28;20228;-58
2023/09/30 02:27:53;;;;;;;0.00;0.00;;;17.50;47.50;;;;;;5033486;28;20200;-60
2023/09/30 02:30:24;;;;;;;0.00;0.00;;;17.50;47.40;;;;;;5033367;28;20204;-55
2023/09/30 02:32:56;;;;;;;0.00;0.00;;;17.50;47.50;;;;;;5033242;28;20239;-56
2023/09/30 02:35:26;;;;;;;0.08;0.08;;;17.50;47.50;;;;;;5032792;28;20238;-64
2023/09/30 02:37:59;;;;;;;0.00;0.00;;;17.60;47.60;;;;;;5032550;28;20184;-53
2023/09/30 02:40:30;;;;;;;0.08;0.08;;;17.60;47.60;;;;;;5032892;28;20204;-64
2023/09/30 02:43:01;;;;;;;0.10;0.10;;;17.60;47.70;;;;;;5032752;28;20220;-56
2023/09/30 02:45:32;;;;;;;0.00;0.00;;;17.70;47.70;;;;;;5032240;28;20628;-55
2023/09/30 02:48:02;;;;;;;0.05;0.05;;;17.70;47.70;;;;;;5033421;28;20220;-61
2023/09/30 02:50:33;;;;;;;0.08;0.08;;;17.70;47.70;;;;;;5032680;28;20567;-57
2023/09/30 02:53:06;;;;;;;0.00;0.00;;;17.70;47.80;;;;;;5032510;28;20714;-66
2023/09/30 02:55:36;;;;;;;0.00;0.00;;;17.70;47.70;;;;;;5032620;28;20199;-63
2023/09/30 02:58:07;;;;;;;0.00;0.00;;;17.80;47.80;;;;;;5032167;28;20204;-54
2023/09/30 03:00:38;;;;;;;0.00;0.00;;;17.80;47.80;;;;;;5031622;28;20282;-56
2023/09/30 03:03:09;;;;;;;0.10;0.10;;;17.80;47.80;;;;;;5032166;28;20220;-59
2023/09/30 03:05:39;;;;;;;0.00;0.00;;;17.90;47.90;;;;;;5032409;28;20224;-59
2023/09/30 03:08:12;;;;;;;0.00;0.00;;;17.90;47.80;;;;;;5032604;28;20674;-63
2023/09/30 03:10:43;;;;;;;0.00;0.00;;;17.90;47.70;;;;;;5032564;28;20227;-59
2023/09/30 03:13:13;;;;;;;0.00;0.00;;;17.90;47.60;;;;;;5032321;28;20216;-65
2023/09/30 03:15:44;;;;;;;0.00;0.00;;;17.90;47.50;;;;;;5032170;28;20559;-59
2023/09/30 03:18:15;;;;;;;0.00;0.00;;;18.00;47.50;;;;;;5011920;28;20585;-56
2023/09/30 03:20:45;;;;;;;0.00;0.00;;;18.00;47.50;;;;;;5012370;28;20208;-59
2023/09/30 03:23:18;;;;;;;0.10;0.10;;;18.00;47.50;;;;;;5012127;28;20562;-56
2023/09/30 03:25:49;;;;;;;0.00;0.00;;;18.00;47.50;;;;;;5012501;28;20235;-56
2023/09/30 03:28:19;;;;;;;0.10;0.10;;;18.10;47.60;;;;;;5012456;28;20568;-52
2023/09/30 03:30:50;;;;;;;0.00;0.00;;;18.10;47.40;;;;;;5012507;28;20629;-55
2023/09/30 03:33:24;;;;;;;0.00;0.00;;;18.10;47.40;;;;;;5012347;28;20224;-55
2023/09/30 03:35:55;;;;;;;0.00;0.00;;;18.10;47.90;;;;;;5046415;28;20203;-50
2023/09/30 03:38:28;;;;;;;0.10;0.10;;;18.20;47.40;;;;;;5052075;28;20275;-62
2023/09/30 03:40:59;;;;;;;0.03;0.03;;;18.20;47.30;;;;;;5051939;28;20674;-63
2023/09/30 03:43:29;;;;;;;0.00;0.00;;;18.20;47.20;;;;;;5052296;28;20265;-54
2023/09/30 03:46:00;;;;;;;0.10;0.10;;;18.20;47.20;;;;;;5049844;28;20593;-55
2023/09/30 03:48:31;;;;;;;0.00;0.00;;;18.20;46.80;;;;;;5055618;22;20713;-46
2023/09/30 03:51:13;;;;;;;0.10;0.10;;;18.30;46.70;;;;;;5071370;28;20586;-48
2023/09/30 03:53:46;;;;;;;0.00;0.00;;;18.30;46.80;;;;;;5089379;28;20547;-47
2023/09/30 03:56:18;;;;;;;0.10;0.10;;;18.30;46.90;;;;;;5091715;28;20676;-47
2023/09/30 03:58:48;;;;;;;0.00;0.00;;;18.30;46.90;;;;;;5091647;28;20198;-49
2023/09/30 04:01:20;;;;;;;0.00;0.00;;;18.40;47.00;;;;;;5091556;28;20205;-48
2023/09/30 04:03:54;;;;;;;0.10;0.10;;;18.40;47.00;;;;;;5091729;28;20218;-46
2023/09/30 04:06:25;;;;;;;0.03;0.03;;;18.40;46.90;;;;;;5091625;28;20278;-47
2023/09/30 04:08:59;;;;;;;0.10;0.10;;;18.50;47.00;;;;;;5091921;28;20193;-48
2023/09/30 04:11:29;;;;;;;0.10;0.10;;;18.50;47.00;;;;;;5091585;28;20608;-46
2023/09/30 04:14:00;;;;;;;0.00;0.00;;;18.50;47.00;;;;;;5087385;28;20249;-45
2023/09/30 04:16:30;;;;;;;0.08;0.08;;;18.60;47.00;;;;;;5085144;28;20190;-49
2023/09/30 04:19:01;;;;;;;0.10;0.10;;;18.60;47.00;;;;;;5090987;28;20222;-46
2023/09/30 04:21:33;;;;;;;0.00;0.00;;;18.60;47.00;;;;;;5070931;28;20209;-47
2023/09/30 04:24:06;;;;;;;0.10;0.10;;;18.60;46.50;;;;;;5071537;28;20621;-47
2023/09/30 04:26:37;;;;;;;0.10;0.10;;;18.70;46.40;;;;;;5071295;28;20744;-47
2023/09/30 04:29:10;;;;;;;0.00;0.00;;;18.70;46.40;;;;;;5084154;28;20200;-46
2023/09/30 04:31:41;;;;;;;0.10;0.10;;;18.70;46.50;;;;;;5091678;28;20546;-47
2023/09/30 04:34:12;;;;;;;0.03;0.03;;;18.80;46.60;;;;;;5091200;28;20591;-47
2023/09/30 04:36:43;;;;;;;0.00;0.00;;;18.80;46.60;;;;;;5091540;28;20324;-47
2023/09/30 04:39:15;;;;;;;0.00;0.00;;;18.80;46.60;;;;;;5091326;28;20654;-46
2023/09/30 04:41:46;;;;;;;0.10;0.10;;;18.80;46.60;;;;;;5090698;28;20616;-46
2023/09/30 04:44:17;;;;;;;0.00;0.00;;;18.80;46.60;;;;;;5091620;28;20289;-46
2023/09/30 04:46:48;;;;;;;0.00;0.00;;;18.90;46.60;;;;;;5099732;28;20328;-48
2023/09/30 04:49:19;;;;;;;0.00;0.00;;;18.90;46.60;;;;;;5085157;22;20226;-52
2023/09/30 04:51:50;;;;;;;0.10;0.10;;;18.90;46.50;;;;;;5050934;28;20291;-55
2023/09/30 04:54:23;;;;;;;0.10;0.10;;;19.00;46.60;;;;;;5050840;28;20228;-61
2023/09/30 04:56:53;;;;;;;0.03;0.03;;;19.00;46.60;;;;;;5051123;28;20195;-56
2023/09/30 04:59:25;;;;;;;0.00;0.00;;;19.00;46.60;;;;;;5051322;28;20207;-57
2023/09/30 05:01:56;;;;;;;0.00;0.00;;;19.00;46.60;;;;;;5050780;28;20686;-56
2023/09/30 05:04:29;;;;;;;0.00;0.00;;;19.10;46.60;;;;;;5050832;28;20191;-59
2023/09/30 05:07:00;;;;;;;0.00;0.00;;;19.10;46.70;;;;;;5050904;28;20599;-55
2023/09/30 05:09:33;;;;;;;0.10;0.10;;;19.10;46.60;;;;;;5033598;28;20199;-59
2023/09/30 05:12:04;;;;;;;0.00;0.00;;;19.20;46.50;;;;;;5034500;28;20574;-54
2023/09/30 05:14:36;;;;;;;0.00;0.00;;;19.20;46.50;;;;;;5034949;28;20287;-60
2023/09/30 05:17:08;;;;;;;0.00;0.00;;;19.20;46.50;;;;;;5056864;28;20666;-56
2023/09/30 05:19:38;;;;;;;0.10;0.10;;;19.20;46.40;;;;;;5074676;28;20205;-49
2023/09/30 05:22:10;;;;;;;0.10;0.10;;;19.30;46.40;;;;;;5074533;28;20227;-53
2023/09/30 05:24:43;;;;;;;0.10;0.10;;;19.30;46.30;;;;;;5074198;28;20191;-56
2023/09/30 05:27:14;;;;;;;0.00;0.00;;;19.30;46.20;;;;;;5074464;28;20191;-53
2023/09/30 05:29:44;;;;;;;0.00;0.00;;;19.30;46.20;;;;;;5074640;28;20234;-51
2023/09/30 05:32:15;;;;;;;0.00;0.00;;;19.40;46.30;;;;;;5074507;28;20477;-52
2023/09/30 05:34:46;;;;;;;0.03;0.03;;;19.40;46.30;;;;;;5074333;28;20206;-59
2023/09/30 05:37:18;;;;;;;0.00;0.00;;;19.40;46.20;;;;;;5074043;28;20203;-59
2023/09/30 05:39:50;;;;;;;0.00;0.00;;;19.40;46.10;;;;;;5073719;28;20617;-54
2023/09/30 05:42:22;;;;;;;0.00;0.00;;;19.40;46.20;;;;;;5074207;28;20211;-59
2023/09/30 05:44:53;;;;;;;0.10;0.10;;;19.50;46.30;;;;;;5053554;28;20230;-60
2023/09/30 05:47:24;;;;;;;0.00;0.00;;;19.40;46.20;;;;;;5067465;28;20563;-48
2023/09/30 05:49:55;;;;;;;0.10;0.10;;;19.50;46.40;;;;;;5074297;28;20210;-54
2023/09/30 05:52:26;;;;;;;0.10;0.10;;;19.50;46.50;;;;;;5074035;28;20214;-52
2023/09/30 05:55:00;;;;;;;0.00;0.00;;;19.50;46.60;;;;;;5074105;28;20643;-55
2023/09/30 05:57:31;;;;;;;0.00;0.00;;;19.50;46.60;;;;;;5073749;28;20233;-58
2023/09/30 06:00:06;;;;;;;0.00;0.00;;;19.50;46.60;;;;;;5074027;28;20201;-52
2023/09/30 06:02:37;;;;;;;0.00;0.00;;;19.50;46.60;;;;;;5073643;28;20214;-51
2023/09/30 06:05:08;;;;;;;0.00;0.00;;;19.50;46.60;;;;;;5072760;28;20199;-51
2023/09/30 06:07:41;;;;;;;0.00;0.00;;;19.50;46.60;;;;;;5073787;28;20202;-52
2023/09/30 06:10:15;;;;;;;0.10;0.10;;;19.50;46.60;;;;;;5073802;28;20194;-60
2023/09/30 06:12:48;;;;;;;0.00;0.00;;;19.50;46.60;;;;;;5073746;28;20218;-56
2023/09/30 06:15:21;;;;;;;0.10;0.10;;;19.50;46.70;;;;;;5073401;28;20293;-60
2023/09/30 06:17:55;;;;;;;0.03;0.03;;;19.50;46.70;;;;;;5073005;28;20288;-48
2023/09/30 06:20:30;;;;;;;0.10;0.10;;;19.50;46.70;;;;;;5067773;28;20184;-52
2023/09/30 06:23:02;;;;;;;0.10;0.10;;;19.50;47.20;;;;;;5053204;28;20698;-46
2023/09/30 06:25:36;;;;;;;0.00;0.00;;;19.50;46.50;;;;;;5053064;28;20687;-57
2023/09/30 06:28:08;;;;;;;0.00;0.00;;;19.50;46.40;;;;;;5058751;28;20552;-51
2023/09/30 06:30:42;;;;;;;0.10;0.10;;;19.50;46.30;;;;;;5073166;28;20221;-58
2023/09/30 06:33:15;;;;;;;0.10;0.10;;;19.50;46.10;;;;;;5073121;28;20584;-53
2023/09/30 06:35:50;;;;;;;0.00;0.00;;;19.50;46.10;;;;;;5072992;28;20282;-54
2023/09/30 06:38:23;;;;;;;0.10;0.10;;;19.50;46.10;;;;;;5060308;28;20679;-54
2023/09/30 06:40:59;;;;;;;0.00;0.00;;;19.40;46.00;;;;;;5053317;28;20195;-52
2023/09/30 06:43:32;;;;;;;0.00;0.00;;;19.40;46.00;;;;;;5053015;28;20737;-57
2023/09/30 06:46:10;;;;;;;0.00;0.00;;;19.40;46.00;;;;;;5054973;28;20231;-50
2023/09/30 06:48:42;;;;;;;0.05;0.05;;;19.40;46.00;;;;;;5073523;28;20210;-57
2023/09/30 06:51:18;;;;;;;0.00;0.00;;;19.40;46.10;;;;;;5072903;28;20273;-52
2023/09/30 06:53:50;;;;;;;0.00;0.00;;;19.40;46.10;;;;;;5072342;28;20218;-57
2023/09/30 06:56:26;;;;;;;0.08;0.08;;;19.30;46.60;;;;;;5072138;28;20712;-57
2023/09/30 06:58:59;;;;;;;0.00;0.00;;;19.30;46.10;;;;;;5068700;28;20199;-54
2023/09/30 07:01:30;;;;;;;0.00;0.00;;;19.30;46.10;;;;;;5052152;28;20199;-54
2023/09/30 07:04:03;;;;;;;0.08;0.08;;;19.30;46.10;;;;;;5051685;28;20223;-54
2023/09/30 07:06:34;;;;;;;0.00;0.00;;;19.30;46.10;;;;;;5052556;28;20230;-53
2023/09/30 07:09:07;;;;;;;0.00;0.00;;;19.30;46.10;;;;;;5052547;28;20195;-57
2023/09/30 07:11:41;;;;;;;0.10;0.10;;;19.20;46.00;;;;;;5052580;28;20245;-57
2023/09/30 07:14:14;;;;;;;0.00;0.00;;;19.20;46.00;;;;;;5052763;28;20718;-55
2023/09/30 07:16:46;;;;;;;0.00;0.00;;;19.20;46.00;;;;;;5052032;28;20202;-49
2023/09/30 07:19:19;;;;;;;0.10;0.10;;;19.20;46.00;;;;;;5051939;28;20203;-58
2023/09/30 07:21:51;;;;;;;0.00;0.00;;;19.10;46.00;;;;;;5051039;28;20199;-56
2023/09/30 07:24:24;;;;;;;0.00;0.00;;;19.10;45.90;;;;;;5052094;28;20199;-55
2023/09/30 07:26:59;;;;;;;0.00;0.00;;;19.10;46.00;;;;;;5052549;28;20223;-51
2023/09/30 07:29:31;;;;;;;0.00;0.00;;;19.10;46.00;;;;;;5052309;28;20462;-54
2023/09/30 07:32:03;;;;;;;0.00;0.00;;;19.00;45.90;;;;;;5051513;28;20222;-55
2023/09/30 07:34:36;;;;;;;0.00;0.00;;;19.00;45.90;;;;;;5052154;28;20214;-55
2023/09/30 07:37:08;;;;;;;0.00;0.00;;;19.00;45.90;;;;;;5051763;28;20199;-53
2023/09/30 07:39:40;;;;;;;0.10;0.10;;;18.90;45.90;;;;;;5050744;28;20192;-58
2023/09/30 07:42:17;;;;;;;0.10;0.10;;;18.90;45.90;;;;;;5051374;28;20659;-49
2023/09/30 07:44:49;;;;;;;0.00;0.00;;;18.90;45.90;;;;;;5051498;28;20633;-57
2023/09/30 07:47:23;;;;;;;0.00;0.00;;;18.90;46.00;;;;;;5064257;28;20800;-50
2023/09/30 07:49:56;;;;;;;0.00;0.00;;;18.80;45.90;;;;;;5071930;28;20260;-50
2023/09/30 07:52:29;;;;;;;0.00;0.00;;;18.80;46.00;;;;;;5071655;28;20301;-56
2023/09/30 07:55:04;;;;;;;0.08;0.08;;;18.80;46.00;;;;;;5071703;28;20205;-50
2023/09/30 07:57:41;;;;;;;0.10;0.10;;;18.80;45.90;;;;;;5071466;28;20198;-49
2023/09/30 08:00:17;;;;;;;0.00;0.00;;;18.80;45.90;;;;;;5071291;28;20662;-56
2023/09/30 08:02:51;;;;;;;0.00;0.00;;;18.70;45.90;;;;;;5071094;28;20219;-47
2023/09/30 08:05:24;;;;;;;0.00;0.00;;;18.70;45.90;;;;;;5070737;28;20731;-48
2023/09/30 08:07:56;;;;;;;0.00;0.00;;;18.70;45.90;;;;;;5071475;28;20226;-54
2023/09/30 08:10:41;;;;;;;0.05;0.05;;;18.60;45.80;;;;;;5071498;28;20564;-53
2023/09/30 08:13:17;;;;;;;0.00;0.00;;;18.60;45.80;;;;;;5051018;28;20342;-52
2023/09/30 08:15:48;;;;;;;0.08;0.08;;;18.60;45.80;;;;;;5071513;28;20194;-49
2023/09/30 08:18:19;;;;;;;0.08;0.08;;;18.60;45.80;;;;;;5031375;28;20655;-52
2023/09/30 08:20:50;;;;;;;0.05;0.05;;;18.60;45.90;;;;;;5031246;28;20196;-51
2023/09/30 08:23:21;;;;;;;0.00;0.00;;;18.50;45.80;;;;;;5031348;28;20212;-56
2023/09/30 08:25:52;;;;;;;0.10;0.10;;;18.50;45.80;;;;;;5054237;28;20662;-52
2023/09/30 08:28:26;;;;;;;0.10;0.10;;;18.50;45.90;;;;;;5071319;28;20202;-54
2023/09/30 08:31:00;;;;;;;0.00;0.00;;;18.50;45.90;;;;;;5071319;28;20685;-56
2023/09/30 08:33:33;;;;;;;0.00;0.00;;;18.40;45.80;;;;;;5071279;28;20218;-54
2023/09/30 08:36:10;;;;;;;0.10;0.10;;;18.40;45.90;;;;;;5071478;28;20238;-48
2023/09/30 08:38:43;;;;;;;0.10;0.10;;;18.40;45.80;;;;;;5055279;28;20195;-51
2023/09/30 08:41:27;;;;;;;0.10;0.10;;;18.30;45.80;;;;;;5051319;28;20214;-52
2023/09/30 08:44:05;;;;;;;0.00;0.00;;;18.30;45.80;;;;;;5052200;28;20707;-57
2023/09/30 08:46:38;;;;;;;0.00;0.00;;;18.30;45.80;;;;;;5061470;28;20737;-54
2023/09/30 08:49:11;;;;;;;0.10;0.10;;;18.30;45.80;;;;;;5087953;22;20238;-45
2023/09/30 08:51:44;;;;;;;0.00;0.00;;;18.20;45.80;;;;;;5074813;28;20195;-45
2023/09/30 08:54:17;;;;;;;0.10;0.10;;;18.20;45.80;;;;;;5074784;28;20213;-47
2023/09/30 08:56:51;;;;;;;0.10;0.10;;;18.20;45.80;;;;;;5075054;28;20191;-48
2023/09/30 08:59:26;;;;;;;0.00;0.00;;;18.20;45.80;;;;;;5075025;28;20280;-47
2023/09/30 09:01:58;;;;;;;0.03;0.03;;;18.20;45.80;;;;;;5074824;28;20194;-46
2023/09/30 09:04:29;;;;;;;0.03;0.03;;;18.10;45.80;;;;;;5074217;28;20286;-46
2023/09/30 09:07:00;;;;;;;0.00;0.00;;;18.10;45.80;;;;;;5074538;28;20702;-46
2023/09/30 09:09:32;;;;;;;0.00;0.00;;;18.10;45.80;;;;;;5074980;28;20207;-46
2023/09/30 09:12:03;;;;;;;0.10;0.10;;;18.10;45.80;;;;;;5074018;28;20203;-45
2023/09/30 09:14:46;;;;;;;0.00;0.00;;;18.10;45.80;;;;;;5074058;28;20195;-46
2023/09/30 09:17:17;;;;;;;0.08;0.08;;;18.00;45.80;;;;;;5086815;28;20198;-46
2023/09/30 09:20:01;;;;;;;0.10;0.10;;;18.00;45.80;;;;;;5094307;28;20223;-46
2023/09/30 09:22:42;;;;;;;0.10;0.10;;;18.00;45.80;;;;;;5094985;28;20224;-45
2023/09/30 09:25:13;;;;;;;0.10;0.10;;;17.90;45.80;;;;;;5094749;28;20190;-45
2023/09/30 09:27:44;;;;;;;0.10;0.10;;;17.90;45.80;;;;;;5094520;28;20222;-45
2023/09/30 09:30:27;;;;;;;0.00;0.00;;;17.90;45.80;;;;;;5086310;28;20195;-46
2023/09/30 09:33:07;;;;;;;0.08;0.08;;;17.90;45.80;;;;;;5073863;28;20210;-46
2023/09/30 09:35:38;;;;;;;0.05;0.05;;;17.80;45.80;;;;;;5074056;28;20202;-46
2023/09/30 09:38:10;;;;;;;0.10;0.10;;;17.80;45.80;;;;;;5073891;28;20203;-46
2023/09/30 09:40:41;;;;;;;0.08;0.08;;;17.80;45.80;;;;;;5074268;28;20251;-46
2023/09/30 09:43:12;;;;;;;0.08;0.08;;;17.80;45.80;;;;;;5074324;28;20230;-45
2023/09/30 09:45:46;;;;;;;0.00;0.00;;;17.80;45.80;;;;;;5074043;28;20194;-46
2023/09/30 09:48:17;;;;;;;0.00;0.00;;;17.70;45.80;;;;;;5086658;22;20268;-61
2023/09/30 09:50:51;;;;;;;0.00;0.00;;;17.70;45.80;;;;;;5073895;28;20704;-59
2023/09/30 09:53:22;;;;;;;0.10;0.10;;;17.70;45.80;;;;;;5074073;28;20694;-48
2023/09/30 09:55:54;;;;;;;0.00;0.00;;;17.70;45.80;;;;;;5073595;28;20195;-55
2023/09/30 09:58:26;;;;;;;0.00;0.00;;;17.60;45.80;;;;;;5073649;28;20209;-48
2023/09/30 10:01:00;;;;;;;0.10;0.10;;;17.60;45.80;;;;;;5073909;28;20561;-48
2023/09/30 10:03:31;;;;;;;0.08;0.08;;;17.50;45.80;;;;;;5073507;28;20785;-51
2023/09/30 10:06:02;;;;;;;0.03;0.03;;;17.50;45.80;;;;;;5073416;28;20195;-54
2023/09/30 10:08:38;;;;;;;0.00;0.00;;;17.50;45.80;;;;;;5073568;28;20667;-49
2023/09/30 10:11:08;;;;;;;0.00;0.00;;;17.50;45.80;;;;;;5073901;28;20202;-57
2023/09/30 10:14:00;;;;;;;0.00;0.00;;;17.50;45.80;;;;;;5073622;28;20222;-55
2023/09/30 10:16:53;;;;;;;0.00;0.00;;;17.40;45.80;;;;;;5073697;28;20206;-54
2023/09/30 10:19:25;;;;;;;0.00;0.00;;;17.40;45.80;;;;;;5073608;28;20603;-56
2023/09/30 10:22:25;;;;;;;0.10;0.10;;;17.40;45.80;;;;;;5073436;28;20195;-54
2023/09/30 10:25:01;;;;;;;0.10;0.10;;;17.30;45.90;;;;;;5058404;28;20682;-56
2023/09/30 10:27:44;;;;;;;0.00;0.00;;;17.40;46.00;;;;;;5073403;28;20313;-58
2023/09/30 10:30:18;;;;;;;0.00;0.00;;;17.30;46.00;;;;;;5073604;28;20195;-56
2023/09/30 10:33:14;;;;;;;0.10;0.10;;;17.30;46.00;;;;;;5071406;28;20210;-48
2023/09/30 10:35:49;;;;;;;0.08;0.08;;;17.30;46.10;;;;;;5064912;28;20194;-55
2023/09/30 10:38:43;;;;;;;0.10;0.10;;;17.20;46.00;;;;;;5072592;28;20241;-48
2023/09/30 10:41:34;;;;;;;0.10;0.10;;;17.20;46.10;;;;;;5072969;28;20202;-55
2023/09/30 10:44:36;;;;;;;0.10;0.10;;;17.20;46.10;;;;;;5071932;28;20734;-51
2023/09/30 10:47:39;;;;;;;0.10;0.10;;;17.10;46.00;;;;;;5069334;28;20279;-51
2023/09/30 10:50:52;;;;;;;0.10;0.10;;;17.10;46.00;;;;;;5066892;22;20249;-47
2023/09/30 10:53:23;;;;;;;0.03;0.03;;;17.10;46.10;;;;;;5052820;28;20306;-46
2023/09/30 10:55:58;;;;;;;0.00;0.00;;;17.10;46.00;;;;;;5033976;28;20196;-47
2023/09/30 10:58:43;;;;;;;0.00;0.00;;;17.00;46.10;;;;;;5032655;28;20599;-45
2023/09/30 11:01:15;;;;;;;0.00;0.00;;;17.00;46.70;;;;;;5012587;28;20205;-47
2023/09/30 11:03:46;;;;;;;0.10;0.10;;;17.00;46.10;;;;;;5029831;28;20465;-46
2023/09/30 11:06:20;;;;;;;0.08;0.08;;;17.00;46.20;;;;;;5030244;28;20196;-47
2023/09/30 11:08:55;;;;;;;0.10;0.10;;;17.00;46.20;;;;;;5032010;28;20223;-45
2023/09/30 11:11:42;;;;;;;0.10;0.10;;;16.90;46.10;;;;;;5031587;28;20593;-46
2023/09/30 11:14:27;;;;;;;0.00;0.00;;;16.90;46.10;;;;;;5036349;28;20195;-47
2023/09/30 11:16:59;;;;;;;0.10;0.10;;;16.90;46.10;;;;;;5035911;28;20200;-46
2023/09/30 11:19:30;;;;;;;0.00;0.00;;;16.90;46.10;;;;;;5031388;28;20791;-47
2023/09/30 11:22:03;;;;;;;0.10;0.10;;;16.90;46.20;;;;;;5030793;28;20224;-45
2023/09/30 11:24:37;;;;;;;0.00;0.00;;;16.80;46.10;;;;;;5031142;28;20199;-46
2023/09/30 11:27:08;;;;;;;0.10;0.10;;;16.80;46.10;;;;;;5031915;28;20550;-47
2023/09/30 11:29:39;;;;;;;0.10;0.10;;;16.80;46.10;;;;;;5038647;28;20203;-46
2023/09/30 11:32:10;;;;;;;0.00;0.00;;;16.80;46.10;;;;;;5051387;28;20718;-47
2023/09/30 11:34:41;;;;;;;0.00;0.00;;;16.80;46.20;;;;;;5051250;28;20678;-47
2023/09/30 11:37:14;;;;;;;0.05;0.05;;;16.70;46.10;;;;;;5031112;28;20196;-46
2023/09/30 11:39:45;;;;;;;0.00;0.00;;;16.70;46.10;;;;;;5032275;28;20196;-46
2023/09/30 11:42:20;;;;;;;0.10;0.10;;;16.70;46.10;;;;;;5031115;28;20674;-48
2023/09/30 11:44:51;;;;;;;0.00;0.00;;;16.70;46.10;;;;;;5030677;28;20211;-45
2023/09/30 11:47:33;;;;;;;0.08;0.08;;;16.60;46.10;;;;;;5030794;28;20744;-46
2023/09/30 11:50:04;;;;;;;0.10;0.10;;;16.60;46.10;;;;;;5064199;22;20710;-51
2023/09/30 11:52:39;;;;;;;0.10;0.10;;;16.60;46.10;;;;;;5050644;28;20687;-55
2023/09/30 11:55:12;;;;;;;0.00;0.00;;;16.60;46.10;;;;;;5063263;28;20210;-53
2023/09/30 11:57:43;;;;;;;0.08;0.08;;;16.50;46.10;;;;;;5070932;28;20285;-55
2023/09/30 12:00:15;;;;;;;0.00;0.00;;;16.50;46.10;;;;;;5070940;28;20199;-54
2023/09/30 12:02:45;;;;;;;0.00;0.00;;;16.50;46.10;;;;;;5070848;28;20254;-50
2023/09/30 12:05:16;;;;;;;0.00;0.00;;;16.50;46.10;;;;;;5070772;28;20183;-52
2023/09/30 12:07:49;;;;;;;0.10;0.10;;;16.40;46.10;;;;;;5070546;28;20226;-50
2023/09/30 12:10:19;;;;;;;0.00;0.00;;;16.50;46.20;;;;;;5069964;28;20199;-50
2023/09/30 12:12:50;;;;;;;0.10;0.10;;;16.40;46.20;;;;;;5070191;28;20222;-53
2023/09/30 12:15:22;;;;;;;0.10;0.10;;;16.40;46.20;;;;;;5070252;28;20194;-57
2023/09/30 12:17:52;;;;;;;0.10;0.10;;;16.40;46.20;;;;;;5071201;28;20207;-49
2023/09/30 12:20:23;;;;;;;0.10;0.10;;;16.40;46.30;;;;;;5059176;28;20223;-57
2023/09/30 12:22:57;;;;;;;0.10;0.10;;;16.30;46.20;;;;;;5057066;28;20214;-49
2023/09/30 12:25:29;;;;;;;0.08;0.08;;;16.30;46.30;;;;;;5069883;28;20252;-51
2023/09/30 12:28:00;;;;;;;0.10;0.10;;;16.30;46.20;;;;;;5066218;28;20215;-52
2023/09/30 12:30:31;;;;;;;0.10;0.10;;;16.30;46.20;;;;;;5050559;28;20656;-54
2023/09/30 12:33:02;;;;;;;0.10;0.10;;;16.30;46.20;;;;;;5050191;28;20211;-51
2023/09/30 12:35:33;;;;;;;0.00;0.00;;;16.20;46.20;;;;;;5054787;28;20199;-56
2023/09/30 12:38:05;;;;;;;0.00;0.00;;;16.20;46.20;;;;;;5059519;28;20227;-53
2023/09/30 12:40:36;;;;;;;0.10;0.10;;;16.20;46.20;;;;;;5058520;28;20194;-48
2023/09/30 12:43:07;;;;;;;0.00;0.00;;;16.20;46.20;;;;;;5070484;28;20222;-47
2023/09/30 12:45:38;;;;;;;0.10;0.10;;;16.20;46.20;;;;;;5058489;28;20481;-55
2023/09/30 12:48:09;;;;;;;0.10;0.10;;;16.10;46.20;;;;;;5069605;28;20313;-51
2023/09/30 12:50:40;;;;;;;0.00;0.00;;;16.10;46.20;;;;;;5070990;28;20206;-56
2023/09/30 12:53:12;;;;;;;0.00;0.00;;;16.10;46.20;;;;;;5070464;28;20579;-57
2023/09/30 12:55:43;;;;;;;0.00;0.00;;;16.10;46.20;;;;;;5069229;28;20195;-52
2023/09/30 12:58:14;;;;;;;0.10;0.10;;;16.10;46.30;;;;;;5070704;28;20210;-52
2023/09/30 13:00:45;;;;;;;0.10;0.10;;;16.00;46.30;;;;;;5063277;28;20191;-55
2023/09/30 13:03:15;;;;;;;0.10;0.10;;;16.00;46.20;;;;;;5070246;28;20215;-53
2023/09/30 13:05:46;;;;;;;0.10;0.10;;;16.00;46.30;;;;;;5068088;28;20673;-57
2023/09/30 13:08:19;;;;;;;0.03;0.03;;;16.00;46.30;;;;;;5067492;28;20218;-52
2023/09/30 13:10:50;;;;;;;0.10;0.10;;;16.00;46.30;;;;;;5058882;28;20191;-57
2023/09/30 13:13:20;;;;;;;0.10;0.10;;;15.90;46.20;;;;;;5057379;28;20203;-51
2023/09/30 13:15:51;;;;;;;0.10;0.10;;;15.90;46.20;;;;;;5063062;28;20195;-57
2023/09/30 13:18:23;;;;;;;0.10;0.10;;;15.90;46.20;;;;;;5060102;28;20199;-51